sensor_id;sensor_type;location;lat;lon;timestamp;temperature;humidity
16814;DHT22;8524;57.650;11.926;2024-01-15T00:01:09;-0.10;99.90
16814;DHT22;8524;57.650;11.926;2024-01-15T00:03:36;-0.10;99.90
16814;DHT22;8524;57.650;11.926;2024-01-15T00:06:03;0.00;99.90
16814;DHT22;8524;57.650;11.926;2024-01-15T00:08:30;0.00;99.90
16814;DHT22;8524;57.650;11.926;2024-01-15T00:10:57;0.00;99.90
16814;DHT22;8524;57.650;11.926;2024-01-15T00:13:24;-0.10;99.90
16814;DHT22;8524;57.650;11.926;2024-01-15T00:15:52;-0.10;99.90
16814;DHT22;8524;57.650;11.926;2024-01-15T00:18:19;-0.20;99.90
16814;DHT22;8524;57.650;11.926;2024-01-15T00:20:46;-0.30;99.90
16814;DHT22;8524;57.650;11.926;2024-01-15T00:23:13;-0.40;99.90
16814;DHT22;8524;57.650;11.926;2024-01-15T00:25:41;-0.50;99.90
16814;DHT22;8524;57.650;11.926;2024-01-15T00:28:08;-0.60;99.90
16814;DHT22;8524;57.650;11.926;2024-01-15T00:30:35;-0.70;99.90
16814;DHT22;8524;57.650;11.926;2024-01-15T00:33:03;-0.70;99.90
16814;DHT22;8524;57.650;11.926;2024-01-15T00:35:30;-0.80;99.90
16814;DHT22;8524;57.650;11.926;2024-01-15T00:37:57;-0.90;99.90
16814;DHT22;8524;57.650;11.926;2024-01-15T00:40:24;-1.00;99.90
16814;DHT22;8524;57.650;11.926;2024-01-15T00:42:51;-1.00;99.90
16814;DHT22;8524;57.650;11.926;2024-01-15T00:45:18;-1.10;99.90
16814;DHT22;8524;57.650;11.926;2024-01-15T00:47:45;-1.20;99.90
16814;DHT22;8524;57.650;11.926;2024-01-15T00:50:13;-1.20;99.90
16814;DHT22;8524;57.650;11.926;2024-01-15T00:52:40;-1.40;99.90
16814;DHT22;8524;57.650;11.926;2024-01-15T00:55:07;-1.50;99.90
16814;DHT22;8524;57.650;11.926;2024-01-15T00:57:34;-1.50;99.90
16814;DHT22;8524;57.650;11.926;2024-01-15T01:00:01;-1.50;99.90
16814;DHT22;8524;57.650;11.926;2024-01-15T01:02:28;-1.50;99.90
16814;DHT22;8524;57.650;11.926;2024-01-15T01:04:55;-1.60;99.90
16814;DHT22;8524;57.650;11.926;2024-01-15T01:07:23;-1.70;99.90
16814;DHT22;8524;57.650;11.926;2024-01-15T01:09:50;-1.80;99.90
16814;DHT22;8524;57.650;11.926;2024-01-15T01:12:17;-1.80;99.90
16814;DHT22;8524;57.650;11.926;2024-01-15T01:14:44;-1.80;99.90
16814;DHT22;8524;57.650;11.926;2024-01-15T01:17:11;-1.80;99.90
16814;DHT22;8524;57.650;11.926;2024-01-15T01:19:38;-1.90;99.90
16814;DHT22;8524;57.650;11.926;2024-01-15T01:22:05;-1.90;99.90
16814;DHT22;8524;57.650;11.926;2024-01-15T01:24:34;-1.80;99.90
16814;DHT22;8524;57.650;11.926;2024-01-15T01:27:01;-1.90;99.90
16814;DHT22;8524;57.650;11.926;2024-01-15T01:29:27;-1.90;99.90
16814;DHT22;8524;57.650;11.926;2024-01-15T01:31:54;-2.00;99.90
16814;DHT22;8524;57.650;11.926;2024-01-15T01:34:22;-2.00;99.90
16814;DHT22;8524;57.650;11.926;2024-01-15T01:36:49;-2.00;99.90
16814;DHT22;8524;57.650;11.926;2024-01-15T01:39:15;-1.90;99.90
16814;DHT22;8524;57.650;11.926;2024-01-15T01:41:44;-1.90;99.90
16814;DHT22;8524;57.650;11.926;2024-01-15T01:44:11;-1.80;99.90
16814;DHT22;8524;57.650;11.926;2024-01-15T01:46:38;-1.80;99.90
16814;DHT22;8524;57.650;11.926;2024-01-15T01:49:07;-1.80;99.90
16814;DHT22;8524;57.650;11.926;2024-01-15T01:51:35;-1.80;99.90
16814;DHT22;8524;57.650;11.926;2024-01-15T01:54:03;-1.80;99.90
16814;DHT22;8524;57.650;11.926;2024-01-15T01:56:31;-1.80;99.90
16814;DHT22;8524;57.650;11.926;2024-01-15T01:59:00;-1.70;99.90
16814;DHT22;8524;57.650;11.926;2024-01-15T02:01:28;-1.50;99.90
16814;DHT22;8524;57.650;11.926;2024-01-15T02:03:55;-1.10;99.90
16814;DHT22;8524;57.650;11.926;2024-01-15T02:06:23;-0.90;99.90
16814;DHT22;8524;57.650;11.926;2024-01-15T02:08:50;-0.50;99.90
16814;DHT22;8524;57.650;11.926;2024-01-15T02:11:17;-0.20;99.90
16814;DHT22;8524;57.650;11.926;2024-01-15T02:13:44;-0.10;99.90
16814;DHT22;8524;57.650;11.926;2024-01-15T02:16:12;0.10;99.90
16814;DHT22;8524;57.650;11.926;2024-01-15T02:18:40;-0.10;99.90
16814;DHT22;8524;57.650;11.926;2024-01-15T02:21:07;-0.40;99.90
16814;DHT22;8524;57.650;11.926;2024-01-15T02:23:36;-0.70;99.90
16814;DHT22;8524;57.650;11.926;2024-01-15T02:26:03;-0.90;99.90
16814;DHT22;8524;57.650;11.926;2024-01-15T02:28:31;-0.90;99.90
16814;DHT22;8524;57.650;11.926;2024-01-15T02:30:58;-1.00;99.90
16814;DHT22;8524;57.650;11.926;2024-01-15T02:33:25;-1.10;99.90
16814;DHT22;8524;57.650;11.926;2024-01-15T02:35:52;-1.10;99.90
16814;DHT22;8524;57.650;11.926;2024-01-15T02:38:19;-1.20;99.90
16814;DHT22;8524;57.650;11.926;2024-01-15T02:40:47;-1.30;99.90
16814;DHT22;8524;57.650;11.926;2024-01-15T02:43:14;-1.30;99.90
16814;DHT22;8524;57.650;11.926;2024-01-15T02:45:41;-1.30;99.90
16814;DHT22;8524;57.650;11.926;2024-01-15T02:48:08;-1.40;99.90
16814;DHT22;8524;57.650;11.926;2024-01-15T02:50:35;-1.30;99.90
16814;DHT22;8524;57.650;11.926;2024-01-15T02:53:02;-1.30;99.90
16814;DHT22;8524;57.650;11.926;2024-01-15T02:55:29;-1.40;99.90
16814;DHT22;8524;57.650;11.926;2024-01-15T02:57:57;-1.50;99.90
16814;DHT22;8524;57.650;11.926;2024-01-15T03:00:24;-1.50;99.90
16814;DHT22;8524;57.650;11.926;2024-01-15T03:02:51;-1.60;99.90
16814;DHT22;8524;57.650;11.926;2024-01-15T03:05:18;-1.60;99.90
16814;DHT22;8524;57.650;11.926;2024-01-15T03:07:45;-1.60;99.90
16814;DHT22;8524;57.650;11.926;2024-01-15T03:10:13;-1.60;99.90
16814;DHT22;8524;57.650;11.926;2024-01-15T03:12:40;-1.60;99.90
16814;DHT22;8524;57.650;11.926;2024-01-15T03:15:08;-1.80;99.90
16814;DHT22;8524;57.650;11.926;2024-01-15T03:17:35;-1.80;99.90
16814;DHT22;8524;57.650;11.926;2024-01-15T03:20:03;-1.70;99.90
16814;DHT22;8524;57.650;11.926;2024-01-15T03:22:30;-1.80;99.90
16814;DHT22;8524;57.650;11.926;2024-01-15T03:24:57;-1.80;99.90
16814;DHT22;8524;57.650;11.926;2024-01-15T03:27:24;-1.70;99.90
16814;DHT22;8524;57.650;11.926;2024-01-15T03:29:51;-1.80;99.90
16814;DHT22;8524;57.650;11.926;2024-01-15T03:32:19;-1.80;99.90
16814;DHT22;8524;57.650;11.926;2024-01-15T03:34:46;-1.80;99.90
16814;DHT22;8524;57.650;11.926;2024-01-15T03:37:14;-1.80;99.90
16814;DHT22;8524;57.650;11.926;2024-01-15T03:39:40;-1.70;99.90
16814;DHT22;8524;57.650;11.926;2024-01-15T03:42:07;-1.90;99.90
16814;DHT22;8524;57.650;11.926;2024-01-15T03:44:34;-1.90;99.90
16814;DHT22;8524;57.650;11.926;2024-01-15T03:47:01;-1.90;99.90
16814;DHT22;8524;57.650;11.926;2024-01-15T03:49:29;-2.00;99.90
16814;DHT22;8524;57.650;11.926;2024-01-15T03:51:56;-2.00;99.90
16814;DHT22;8524;57.650;11.926;2024-01-15T03:54:23;-2.10;99.90
16814;DHT22;8524;57.650;11.926;2024-01-15T03:56:50;-2.10;99.90
16814;DHT22;8524;57.650;11.926;2024-01-15T03:59:17;-2.10;99.90
16814;DHT22;8524;57.650;11.926;2024-01-15T04:01:48;-2.10;99.90
16814;DHT22;8524;57.650;11.926;2024-01-15T04:04:17;-2.10;99.90
16814;DHT22;8524;57.650;11.926;2024-01-15T04:06:45;-2.10;99.90
16814;DHT22;8524;57.650;11.926;2024-01-15T04:09:13;-2.20;99.90
16814;DHT22;8524;57.650;11.926;2024-01-15T04:11:40;-2.20;99.90
16814;DHT22;8524;57.650;11.926;2024-01-15T04:14:06;-2.30;99.90
16814;DHT22;8524;57.650;11.926;2024-01-15T04:16:33;-2.30;99.90
16814;DHT22;8524;57.650;11.926;2024-01-15T04:19:00;-2.30;99.90
16814;DHT22;8524;57.650;11.926;2024-01-15T04:21:27;-2.20;99.90
16814;DHT22;8524;57.650;11.926;2024-01-15T04:23:55;-2.20;99.90
16814;DHT22;8524;57.650;11.926;2024-01-15T04:26:22;-2.20;99.90
16814;DHT22;8524;57.650;11.926;2024-01-15T04:28:49;-2.30;99.90
16814;DHT22;8524;57.650;11.926;2024-01-15T04:31:23;-2.30;99.90
16814;DHT22;8524;57.650;11.926;2024-01-15T04:33:52;-2.30;99.90
16814;DHT22;8524;57.650;11.926;2024-01-15T04:36:19;-2.30;99.90
16814;DHT22;8524;57.650;11.926;2024-01-15T04:38:46;-2.30;99.90
16814;DHT22;8524;57.650;11.926;2024-01-15T04:41:16;-2.40;99.90
16814;DHT22;8524;57.650;11.926;2024-01-15T04:43:43;-2.30;99.90
16814;DHT22;8524;57.650;11.926;2024-01-15T04:46:09;-2.30;99.90
16814;DHT22;8524;57.650;11.926;2024-01-15T04:48:36;-2.30;99.90
16814;DHT22;8524;57.650;11.926;2024-01-15T04:51:04;-2.40;99.90
16814;DHT22;8524;57.650;11.926;2024-01-15T04:53:32;-2.40;99.90
16814;DHT22;8524;57.650;11.926;2024-01-15T04:55:59;-2.40;99.90
16814;DHT22;8524;57.650;11.926;2024-01-15T04:58:27;-2.30;99.90
16814;DHT22;8524;57.650;11.926;2024-01-15T05:00:54;-2.30;99.90
16814;DHT22;8524;57.650;11.926;2024-01-15T05:03:21;-2.30;99.90
16814;DHT22;8524;57.650;11.926;2024-01-15T05:05:48;-2.30;99.90
16814;DHT22;8524;57.650;11.926;2024-01-15T05:08:15;-2.40;99.90
16814;DHT22;8524;57.650;11.926;2024-01-15T05:10:42;-2.40;99.90
16814;DHT22;8524;57.650;11.926;2024-01-15T05:13:09;-2.40;99.90
16814;DHT22;8524;57.650;11.926;2024-01-15T05:15:37;-2.40;99.90
16814;DHT22;8524;57.650;11.926;2024-01-15T05:18:04;-2.40;99.90
16814;DHT22;8524;57.650;11.926;2024-01-15T05:20:31;-2.30;99.90
16814;DHT22;8524;57.650;11.926;2024-01-15T05:22:58;-2.30;99.90
16814;DHT22;8524;57.650;11.926;2024-01-15T05:25:26;-2.40;99.90
16814;DHT22;8524;57.650;11.926;2024-01-15T05:27:52;-2.30;99.90
16814;DHT22;8524;57.650;11.926;2024-01-15T05:30:19;-2.30;99.90
16814;DHT22;8524;57.650;11.926;2024-01-15T05:32:48;-2.30;99.90
16814;DHT22;8524;57.650;11.926;2024-01-15T05:35:15;-2.40;99.90
16814;DHT22;8524;57.650;11.926;2024-01-15T05:37:44;-2.50;99.90
16814;DHT22;8524;57.650;11.926;2024-01-15T05:40:11;-2.50;99.90
16814;DHT22;8524;57.650;11.926;2024-01-15T05:42:39;-2.60;99.90
16814;DHT22;8524;57.650;11.926;2024-01-15T05:45:06;-2.50;99.90
16814;DHT22;8524;57.650;11.926;2024-01-15T05:47:33;-2.60;99.90
16814;DHT22;8524;57.650;11.926;2024-01-15T05:50:02;-2.60;99.90
16814;DHT22;8524;57.650;11.926;2024-01-15T05:52:29;-2.70;99.90
16814;DHT22;8524;57.650;11.926;2024-01-15T05:54:56;-2.60;99.90
16814;DHT22;8524;57.650;11.926;2024-01-15T05:57:23;-2.60;99.90
16814;DHT22;8524;57.650;11.926;2024-01-15T05:59:50;-2.70;99.90
16814;DHT22;8524;57.650;11.926;2024-01-15T06:02:17;-2.60;99.90
16814;DHT22;8524;57.650;11.926;2024-01-15T06:04:44;-2.80;99.90
16814;DHT22;8524;57.650;11.926;2024-01-15T06:07:14;-2.80;99.90
16814;DHT22;8524;57.650;11.926;2024-01-15T06:09:42;-2.80;99.90
16814;DHT22;8524;57.650;11.926;2024-01-15T06:12:09;-2.80;99.90
16814;DHT22;8524;57.650;11.926;2024-01-15T06:14:35;-2.90;99.90
16814;DHT22;8524;57.650;11.926;2024-01-15T06:17:03;-2.90;99.90
16814;DHT22;8524;57.650;11.926;2024-01-15T06:19:30;-2.80;99.90
16814;DHT22;8524;57.650;11.926;2024-01-15T06:21:56;-2.90;99.90
16814;DHT22;8524;57.650;11.926;2024-01-15T06:24:25;-2.80;99.90
16814;DHT22;8524;57.650;11.926;2024-01-15T06:26:52;-2.90;99.90
16814;DHT22;8524;57.650;11.926;2024-01-15T06:29:19;-2.90;99.90
16814;DHT22;8524;57.650;11.926;2024-01-15T06:31:46;-2.80;99.90
16814;DHT22;8524;57.650;11.926;2024-01-15T06:34:14;-2.90;99.90
16814;DHT22;8524;57.650;11.926;2024-01-15T06:36:42;-2.90;99.90
16814;DHT22;8524;57.650;11.926;2024-01-15T06:39:09;-3.10;99.90
16814;DHT22;8524;57.650;11.926;2024-01-15T06:41:38;-3.10;99.90
16814;DHT22;8524;57.650;11.926;2024-01-15T06:44:08;-3.20;99.90
16814;DHT22;8524;57.650;11.926;2024-01-15T06:46:35;-3.30;99.90
16814;DHT22;8524;57.650;11.926;2024-01-15T06:49:02;-3.30;99.90
16814;DHT22;8524;57.650;11.926;2024-01-15T06:51:29;-3.30;99.90
16814;DHT22;8524;57.650;11.926;2024-01-15T06:53:56;-3.50;99.90
16814;DHT22;8524;57.650;11.926;2024-01-15T06:56:23;-3.40;99.90
16814;DHT22;8524;57.650;11.926;2024-01-15T06:58:51;-3.50;99.90
16814;DHT22;8524;57.650;11.926;2024-01-15T07:01:18;-3.40;99.90
16814;DHT22;8524;57.650;11.926;2024-01-15T07:03:45;-3.50;99.90
16814;DHT22;8524;57.650;11.926;2024-01-15T07:06:12;-3.60;99.90
16814;DHT22;8524;57.650;11.926;2024-01-15T07:08:40;-3.50;99.90
16814;DHT22;8524;57.650;11.926;2024-01-15T07:11:07;-3.50;99.90
16814;DHT22;8524;57.650;11.926;2024-01-15T07:13:36;-3.60;99.90
16814;DHT22;8524;57.650;11.926;2024-01-15T07:16:05;-3.60;99.90
16814;DHT22;8524;57.650;11.926;2024-01-15T07:18:33;-3.70;99.90
16814;DHT22;8524;57.650;11.926;2024-01-15T07:20:59;-3.70;99.90
16814;DHT22;8524;57.650;11.926;2024-01-15T07:23:28;-3.80;99.90
16814;DHT22;8524;57.650;11.926;2024-01-15T07:25:55;-3.90;99.90
16814;DHT22;8524;57.650;11.926;2024-01-15T07:28:22;-3.80;99.90
16814;DHT22;8524;57.650;11.926;2024-01-15T07:30:49;-3.90;99.90
16814;DHT22;8524;57.650;11.926;2024-01-15T07:33:17;-3.90;99.90
16814;DHT22;8524;57.650;11.926;2024-01-15T07:35:43;-4.00;99.90
16814;DHT22;8524;57.650;11.926;2024-01-15T07:38:10;-3.90;99.90
16814;DHT22;8524;57.650;11.926;2024-01-15T07:40:37;-3.80;99.90
16814;DHT22;8524;57.650;11.926;2024-01-15T07:43:04;-3.90;99.90
16814;DHT22;8524;57.650;11.926;2024-01-15T07:45:31;-3.90;99.90
16814;DHT22;8524;57.650;11.926;2024-01-15T07:47:58;-4.00;99.90
16814;DHT22;8524;57.650;11.926;2024-01-15T07:50:26;-4.00;99.90
16814;DHT22;8524;57.650;11.926;2024-01-15T07:52:53;-4.00;99.90
16814;DHT22;8524;57.650;11.926;2024-01-15T07:55:20;-4.10;99.90
16814;DHT22;8524;57.650;11.926;2024-01-15T07:57:47;-4.20;99.90
16814;DHT22;8524;57.650;11.926;2024-01-15T08:00:15;-4.10;99.90
16814;DHT22;8524;57.650;11.926;2024-01-15T08:02:42;-4.10;99.90
16814;DHT22;8524;57.650;11.926;2024-01-15T08:05:09;-4.20;99.90
16814;DHT22;8524;57.650;11.926;2024-01-15T08:07:37;-4.20;99.90
16814;DHT22;8524;57.650;11.926;2024-01-15T08:10:05;-4.20;99.90
16814;DHT22;8524;57.650;11.926;2024-01-15T08:12:32;-4.20;99.90
16814;DHT22;8524;57.650;11.926;2024-01-15T08:14:59;-4.20;99.90
16814;DHT22;8524;57.650;11.926;2024-01-15T08:17:26;-4.10;99.90
16814;DHT22;8524;57.650;11.926;2024-01-15T08:19:54;-4.10;99.90
16814;DHT22;8524;57.650;11.926;2024-01-15T08:22:22;-4.20;99.90
16814;DHT22;8524;57.650;11.926;2024-01-15T08:24:50;-4.20;99.90
16814;DHT22;8524;57.650;11.926;2024-01-15T08:27:17;-4.30;99.90
16814;DHT22;8524;57.650;11.926;2024-01-15T08:29:45;-4.20;99.90
16814;DHT22;8524;57.650;11.926;2024-01-15T08:32:12;-4.20;99.90
16814;DHT22;8524;57.650;11.926;2024-01-15T08:34:41;-4.30;99.90
16814;DHT22;8524;57.650;11.926;2024-01-15T08:37:09;-4.10;99.90
16814;DHT22;8524;57.650;11.926;2024-01-15T08:39:36;-4.20;99.90
16814;DHT22;8524;57.650;11.926;2024-01-15T08:42:05;-4.20;99.90
16814;DHT22;8524;57.650;11.926;2024-01-15T08:44:32;-4.10;99.90
16814;DHT22;8524;57.650;11.926;2024-01-15T08:46:59;-4.20;99.90
16814;DHT22;8524;57.650;11.926;2024-01-15T08:49:26;-4.30;99.90
16814;DHT22;8524;57.650;11.926;2024-01-15T08:51:53;-4.30;99.90
16814;DHT22;8524;57.650;11.926;2024-01-15T08:54:20;-4.20;99.90
16814;DHT22;8524;57.650;11.926;2024-01-15T08:56:47;-4.10;99.90
16814;DHT22;8524;57.650;11.926;2024-01-15T08:59:15;-4.10;99.90
16814;DHT22;8524;57.650;11.926;2024-01-15T09:01:42;-4.30;99.90
16814;DHT22;8524;57.650;11.926;2024-01-15T09:04:09;-4.10;99.90
16814;DHT22;8524;57.650;11.926;2024-01-15T09:06:36;-4.10;99.90
16814;DHT22;8524;57.650;11.926;2024-01-15T09:09:03;-4.10;99.90
16814;DHT22;8524;57.650;11.926;2024-01-15T09:11:30;-4.10;99.90
16814;DHT22;8524;57.650;11.926;2024-01-15T09:13:58;-4.10;99.90
16814;DHT22;8524;57.650;11.926;2024-01-15T09:16:26;-4.10;99.90
16814;DHT22;8524;57.650;11.926;2024-01-15T09:18:53;-4.10;99.90
16814;DHT22;8524;57.650;11.926;2024-01-15T09:21:22;-4.10;99.90
16814;DHT22;8524;57.650;11.926;2024-01-15T09:23:49;-4.10;99.90
16814;DHT22;8524;57.650;11.926;2024-01-15T09:26:17;-4.10;99.90
16814;DHT22;8524;57.650;11.926;2024-01-15T09:28:44;-4.10;99.90
16814;DHT22;8524;57.650;11.926;2024-01-15T09:31:11;-4.00;99.90
16814;DHT22;8524;57.650;11.926;2024-01-15T09:33:40;-3.90;99.90
16814;DHT22;8524;57.650;11.926;2024-01-15T09:36:08;-3.80;99.90
16814;DHT22;8524;57.650;11.926;2024-01-15T09:38:35;-3.80;99.90
16814;DHT22;8524;57.650;11.926;2024-01-15T09:41:02;-4.00;99.90
16814;DHT22;8524;57.650;11.926;2024-01-15T09:43:29;-3.90;99.90
16814;DHT22;8524;57.650;11.926;2024-01-15T09:45:56;-3.90;99.90
16814;DHT22;8524;57.650;11.926;2024-01-15T09:48:24;-3.90;99.90
16814;DHT22;8524;57.650;11.926;2024-01-15T09:50:53;-4.00;99.90
16814;DHT22;8524;57.650;11.926;2024-01-15T09:53:20;-3.90;99.90
16814;DHT22;8524;57.650;11.926;2024-01-15T09:55:50;-3.90;99.90
16814;DHT22;8524;57.650;11.926;2024-01-15T09:58:17;-3.90;99.90
16814;DHT22;8524;57.650;11.926;2024-01-15T10:00:44;-3.80;99.90
16814;DHT22;8524;57.650;11.926;2024-01-15T10:03:11;-3.90;99.90
16814;DHT22;8524;57.650;11.926;2024-01-15T10:05:39;-4.00;99.90
16814;DHT22;8524;57.650;11.926;2024-01-15T10:08:07;-4.00;99.90
16814;DHT22;8524;57.650;11.926;2024-01-15T10:10:36;-3.90;99.90
16814;DHT22;8524;57.650;11.926;2024-01-15T10:13:04;-3.90;99.90
16814;DHT22;8524;57.650;11.926;2024-01-15T10:15:34;-3.90;99.90
16814;DHT22;8524;57.650;11.926;2024-01-15T10:18:02;-3.80;99.90
16814;DHT22;8524;57.650;11.926;2024-01-15T10:20:32;-3.80;99.90
16814;DHT22;8524;57.650;11.926;2024-01-15T10:22:59;-3.80;99.90
16814;DHT22;8524;57.650;11.926;2024-01-15T10:25:27;-3.70;99.90
16814;DHT22;8524;57.650;11.926;2024-01-15T10:28:01;-3.70;99.90
16814;DHT22;8524;57.650;11.926;2024-01-15T10:30:28;-3.90;99.90
16814;DHT22;8524;57.650;11.926;2024-01-15T10:32:59;-3.70;99.90
16814;DHT22;8524;57.650;11.926;2024-01-15T10:35:27;-3.60;99.90
16814;DHT22;8524;57.650;11.926;2024-01-15T10:37:55;-3.60;99.90
16814;DHT22;8524;57.650;11.926;2024-01-15T10:40:23;-3.80;99.90
16814;DHT22;8524;57.650;11.926;2024-01-15T10:42:57;-3.80;99.90
16814;DHT22;8524;57.650;11.926;2024-01-15T10:45:24;-3.80;99.90
16814;DHT22;8524;57.650;11.926;2024-01-15T10:47:51;-3.60;99.90
16814;DHT22;8524;57.650;11.926;2024-01-15T10:50:26;-3.80;99.90
16814;DHT22;8524;57.650;11.926;2024-01-15T10:52:53;-3.80;99.90
16814;DHT22;8524;57.650;11.926;2024-01-15T10:55:21;-3.80;99.90
16814;DHT22;8524;57.650;11.926;2024-01-15T10:57:52;-3.90;99.90
16814;DHT22;8524;57.650;11.926;2024-01-15T11:00:22;-3.90;99.90
16814;DHT22;8524;57.650;11.926;2024-01-15T11:02:51;-3.80;99.90
16814;DHT22;8524;57.650;11.926;2024-01-15T11:05:21;-4.00;99.90
16814;DHT22;8524;57.650;11.926;2024-01-15T11:07:48;-3.90;99.90
16814;DHT22;8524;57.650;11.926;2024-01-15T11:10:40;-3.80;99.90
16814;DHT22;8524;57.650;11.926;2024-01-15T11:13:14;-3.90;99.90
16814;DHT22;8524;57.650;11.926;2024-01-15T11:16:00;-4.00;99.90
16814;DHT22;8524;57.650;11.926;2024-01-15T11:18:29;-4.10;99.90
16814;DHT22;8524;57.650;11.926;2024-01-15T11:21:25;-4.10;99.90
16814;DHT22;8524;57.650;11.926;2024-01-15T11:23:54;-4.00;99.90
16814;DHT22;8524;57.650;11.926;2024-01-15T11:26:36;-4.00;99.90
16814;DHT22;8524;57.650;11.926;2024-01-15T11:29:08;-4.10;99.90
16814;DHT22;8524;57.650;11.926;2024-01-15T11:31:58;-4.10;99.90
16814;DHT22;8524;57.650;11.926;2024-01-15T11:34:54;-4.10;99.90
16814;DHT22;8524;57.650;11.926;2024-01-15T11:37:24;-4.00;99.90
16814;DHT22;8524;57.650;11.926;2024-01-15T11:39:55;-4.00;99.90
16814;DHT22;8524;57.650;11.926;2024-01-15T11:42:22;-4.00;99.90
16814;DHT22;8524;57.650;11.926;2024-01-15T11:44:51;-4.00;99.90
16814;DHT22;8524;57.650;11.926;2024-01-15T11:47:58;-4.20;99.90
16814;DHT22;8524;57.650;11.926;2024-01-15T11:50:30;-4.20;99.90
16814;DHT22;8524;57.650;11.926;2024-01-15T11:53:01;-4.30;99.90
16814;DHT22;8524;57.650;11.926;2024-01-15T11:55:33;-4.30;99.90
16814;DHT22;8524;57.650;11.926;2024-01-15T11:58:01;-4.30;99.90
16814;DHT22;8524;57.650;11.926;2024-01-15T12:00:30;-4.10;99.90
16814;DHT22;8524;57.650;11.926;2024-01-15T12:02:58;-4.10;99.90
16814;DHT22;8524;57.650;11.926;2024-01-15T12:05:25;-4.20;99.90
16814;DHT22;8524;57.650;11.926;2024-01-15T12:07:52;-4.20;99.90
16814;DHT22;8524;57.650;11.926;2024-01-15T12:10:20;-4.00;99.90
16814;DHT22;8524;57.650;11.926;2024-01-15T12:12:56;-4.20;99.90
16814;DHT22;8524;57.650;11.926;2024-01-15T12:15:24;-4.30;99.90
16814;DHT22;8524;57.650;11.926;2024-01-15T12:17:54;-4.30;99.90
16814;DHT22;8524;57.650;11.926;2024-01-15T12:20:23;-4.30;99.90
16814;DHT22;8524;57.650;11.926;2024-01-15T12:22:50;-4.50;99.90
16814;DHT22;8524;57.650;11.926;2024-01-15T12:25:17;-4.50;99.90
16814;DHT22;8524;57.650;11.926;2024-01-15T12:27:44;-4.40;99.90
16814;DHT22;8524;57.650;11.926;2024-01-15T12:30:13;-4.40;99.90
16814;DHT22;8524;57.650;11.926;2024-01-15T12:32:41;-4.40;99.90
16814;DHT22;8524;57.650;11.926;2024-01-15T12:35:10;-4.40;99.90
16814;DHT22;8524;57.650;11.926;2024-01-15T12:37:39;-4.40;99.90
16814;DHT22;8524;57.650;11.926;2024-01-15T12:40:07;-4.60;99.90
16814;DHT22;8524;57.650;11.926;2024-01-15T12:42:35;-4.50;99.90
16814;DHT22;8524;57.650;11.926;2024-01-15T12:45:03;-4.60;99.90
16814;DHT22;8524;57.650;11.926;2024-01-15T12:47:30;-4.60;99.90
16814;DHT22;8524;57.650;11.926;2024-01-15T12:49:57;-4.40;99.90
16814;DHT22;8524;57.650;11.926;2024-01-15T12:52:27;-4.30;99.90
16814;DHT22;8524;57.650;11.926;2024-01-15T12:54:54;-4.40;99.90
16814;DHT22;8524;57.650;11.926;2024-01-15T12:57:21;-4.50;99.90
16814;DHT22;8524;57.650;11.926;2024-01-15T12:59:49;-4.50;99.90
16814;DHT22;8524;57.650;11.926;2024-01-15T13:02:16;-4.40;99.90
16814;DHT22;8524;57.650;11.926;2024-01-15T13:04:44;-4.50;99.90
16814;DHT22;8524;57.650;11.926;2024-01-15T13:07:11;-4.50;99.90
16814;DHT22;8524;57.650;11.926;2024-01-15T13:09:40;-4.50;99.90
16814;DHT22;8524;57.650;11.926;2024-01-15T13:12:07;-4.40;99.90
16814;DHT22;8524;57.650;11.926;2024-01-15T13:14:35;-4.50;99.90
16814;DHT22;8524;57.650;11.926;2024-01-15T13:17:02;-4.50;99.90
16814;DHT22;8524;57.650;11.926;2024-01-15T13:19:29;-4.60;99.90
16814;DHT22;8524;57.650;11.926;2024-01-15T13:21:58;-4.60;99.90
16814;DHT22;8524;57.650;11.926;2024-01-15T13:24:25;-4.70;99.90
16814;DHT22;8524;57.650;11.926;2024-01-15T13:26:54;-4.80;99.90
16814;DHT22;8524;57.650;11.926;2024-01-15T13:29:22;-4.60;99.90
16814;DHT22;8524;57.650;11.926;2024-01-15T13:31:49;-4.80;99.90
16814;DHT22;8524;57.650;11.926;2024-01-15T13:34:16;-4.70;99.90
16814;DHT22;8524;57.650;11.926;2024-01-15T13:36:43;-4.80;99.90
16814;DHT22;8524;57.650;11.926;2024-01-15T13:39:11;-4.80;99.90
16814;DHT22;8524;57.650;11.926;2024-01-15T13:41:45;-4.80;99.90
16814;DHT22;8524;57.650;11.926;2024-01-15T13:44:14;-4.90;99.90
16814;DHT22;8524;57.650;11.926;2024-01-15T13:46:41;-4.80;99.90
16814;DHT22;8524;57.650;11.926;2024-01-15T13:49:08;-4.90;99.90
16814;DHT22;8524;57.650;11.926;2024-01-15T13:51:36;-4.90;99.90
16814;DHT22;8524;57.650;11.926;2024-01-15T13:54:03;-4.90;99.90
16814;DHT22;8524;57.650;11.926;2024-01-15T13:56:31;-5.00;99.90
16814;DHT22;8524;57.650;11.926;2024-01-15T13:58:58;-5.00;99.90
16814;DHT22;8524;57.650;11.926;2024-01-15T14:01:27;-5.20;99.90
16814;DHT22;8524;57.650;11.926;2024-01-15T14:03:54;-5.40;99.90
16814;DHT22;8524;57.650;11.926;2024-01-15T14:06:21;-5.30;99.90
16814;DHT22;8524;57.650;11.926;2024-01-15T14:08:48;-5.30;99.90
16814;DHT22;8524;57.650;11.926;2024-01-15T14:11:15;-5.20;99.90
16814;DHT22;8524;57.650;11.926;2024-01-15T14:13:42;-5.40;99.90
16814;DHT22;8524;57.650;11.926;2024-01-15T14:16:09;-5.40;99.90
16814;DHT22;8524;57.650;11.926;2024-01-15T14:18:38;-5.50;99.90
16814;DHT22;8524;57.650;11.926;2024-01-15T14:21:05;-5.50;99.90
16814;DHT22;8524;57.650;11.926;2024-01-15T14:23:33;-5.60;99.90
16814;DHT22;8524;57.650;11.926;2024-01-15T14:26:01;-5.60;99.90
16814;DHT22;8524;57.650;11.926;2024-01-15T14:28:29;-5.50;99.90
16814;DHT22;8524;57.650;11.926;2024-01-15T14:30:56;-5.50;99.90
16814;DHT22;8524;57.650;11.926;2024-01-15T14:33:25;-5.70;99.90
16814;DHT22;8524;57.650;11.926;2024-01-15T14:35:54;-5.70;99.90
16814;DHT22;8524;57.650;11.926;2024-01-15T14:38:21;-5.80;99.90
16814;DHT22;8524;57.650;11.926;2024-01-15T14:40:48;-5.80;99.90
16814;DHT22;8524;57.650;11.926;2024-01-15T14:43:15;-5.80;99.90
16814;DHT22;8524;57.650;11.926;2024-01-15T14:45:42;-5.70;99.90
16814;DHT22;8524;57.650;11.926;2024-01-15T14:48:10;-5.70;99.90
16814;DHT22;8524;57.650;11.926;2024-01-15T14:50:38;-5.80;99.90
16814;DHT22;8524;57.650;11.926;2024-01-15T14:53:07;-5.80;99.90
16814;DHT22;8524;57.650;11.926;2024-01-15T14:55:34;-6.00;99.90
16814;DHT22;8524;57.650;11.926;2024-01-15T14:58:01;-6.00;99.90
16814;DHT22;8524;57.650;11.926;2024-01-15T15:00:28;-6.00;99.90
16814;DHT22;8524;57.650;11.926;2024-01-15T15:02:55;-6.10;99.90
16814;DHT22;8524;57.650;11.926;2024-01-15T15:05:22;-6.20;99.90
16814;DHT22;8524;57.650;11.926;2024-01-15T15:07:49;-6.30;99.90
16814;DHT22;8524;57.650;11.926;2024-01-15T15:10:17;-6.30;99.90
16814;DHT22;8524;57.650;11.926;2024-01-15T15:12:44;-6.40;99.90
16814;DHT22;8524;57.650;11.926;2024-01-15T15:15:11;-6.40;99.90
16814;DHT22;8524;57.650;11.926;2024-01-15T15:17:39;-6.40;99.90
16814;DHT22;8524;57.650;11.926;2024-01-15T15:20:07;-6.50;99.90
16814;DHT22;8524;57.650;11.926;2024-01-15T15:22:34;-6.50;99.90
16814;DHT22;8524;57.650;11.926;2024-01-15T15:25:01;-6.50;99.90
16814;DHT22;8524;57.650;11.926;2024-01-15T15:27:29;-6.60;99.90
16814;DHT22;8524;57.650;11.926;2024-01-15T15:29:56;-6.60;99.90
16814;DHT22;8524;57.650;11.926;2024-01-15T15:32:23;-6.60;99.90
16814;DHT22;8524;57.650;11.926;2024-01-15T15:34:50;-6.70;99.90